createdAt,value
2022-08-26T00:02:07.245Z,2.15
2022-08-26T00:04:35.455Z,2.42
2022-08-26T00:07:03.622Z,2.30
2022-08-26T00:09:37.294Z,2.10
2022-08-26T00:12:12.148Z,2.22
2022-08-26T00:14:40.810Z,2.25
2022-08-26T00:17:09.300Z,2.50
2022-08-26T00:19:37.396Z,2.20
2022-08-26T00:22:05.971Z,2.00
2022-08-26T00:24:34.074Z,2.45
2022-08-26T00:27:02.033Z,2.20
2022-08-26T00:29:34.861Z,2.10
2022-08-26T00:32:06.333Z,2.50
2022-08-26T00:34:34.550Z,2.20
2022-08-26T00:37:02.779Z,2.40
2022-08-26T00:39:31.556Z,1.98
2022-08-26T00:42:00.603Z,1.92
2022-08-26T00:44:28.840Z,2.30
2022-08-26T00:47:04.006Z,2.15
2022-08-26T00:49:39.691Z,2.22
2022-08-26T00:52:13.189Z,1.90
2022-08-26T00:54:46.939Z,1.90
2022-08-26T00:57:18.332Z,2.17
2022-08-26T00:59:48.379Z,2.20
2022-08-26T01:02:20.155Z,2.17
2022-08-26T01:04:54.267Z,2.20
2022-08-26T01:07:26.375Z,2.65
2022-08-26T01:09:56.213Z,2.20
2022-08-26T01:12:25.979Z,2.28
2022-08-26T01:14:54.170Z,2.42
2022-08-26T01:17:23.555Z,2.42
2022-08-26T01:19:56.185Z,2.67
2022-08-26T01:22:28.827Z,2.60
2022-08-26T01:24:59.715Z,2.78
2022-08-26T01:27:32.481Z,2.10
2022-08-26T01:30:02.757Z,2.05
2022-08-26T01:32:33.000Z,2.00
2022-08-26T01:35:01.962Z,2.20
2022-08-26T01:37:38.998Z,2.13
2022-08-26T01:40:15.356Z,2.30
2022-08-26T01:42:46.763Z,2.15
2022-08-26T01:45:18.396Z,2.28
2022-08-26T01:47:56.838Z,2.20
2022-08-26T01:50:30.615Z,2.05
2022-08-26T01:53:02.098Z,2.40
2022-08-26T01:55:34.159Z,2.22
2022-08-26T01:58:06.215Z,2.38
2022-08-26T02:00:36.192Z,2.20
2022-08-26T02:03:21.686Z,2.38
2022-08-26T02:05:53.884Z,2.42
2022-08-26T02:08:26.834Z,2.00
2022-08-26T02:10:56.546Z,2.05
2022-08-26T02:13:26.987Z,2.20
2022-08-26T02:15:56.439Z,2.13
2022-08-26T02:18:25.400Z,2.10
2022-08-26T02:20:54.904Z,2.30
2022-08-26T02:23:24.416Z,2.30
2022-08-26T02:26:02.110Z,2.45
2022-08-26T02:28:37.094Z,2.50
2022-08-26T02:31:05.183Z,2.20
2022-08-26T02:33:36.305Z,2.35
2022-08-26T02:36:05.628Z,2.00
2022-08-26T02:38:35.551Z,2.53
2022-08-26T02:41:05.343Z,2.17
2022-08-26T02:43:36.544Z,2.40
2022-08-26T02:46:06.138Z,2.10
2022-08-26T02:48:34.391Z,2.33
2022-08-26T02:51:04.038Z,2.47
2022-08-26T02:53:35.517Z,2.30
2022-08-26T02:56:08.371Z,3.00
2022-08-26T02:58:36.548Z,2.63
2022-08-26T03:01:04.905Z,3.85
2022-08-26T03:03:34.009Z,3.90
2022-08-26T03:06:02.168Z,3.55
2022-08-26T03:08:32.619Z,4.20
2022-08-26T03:11:01.637Z,4.90
2022-08-26T03:13:31.790Z,4.93
2022-08-26T03:16:02.787Z,4.15
2022-08-26T03:18:31.103Z,5.70
2022-08-26T03:20:59.184Z,5.95
2022-08-26T03:23:27.149Z,5.85
2022-08-26T03:25:56.925Z,6.60
2022-08-26T03:28:24.887Z,6.18
2022-08-26T03:30:57.085Z,6.70
2022-08-26T03:33:26.553Z,7.30
2022-08-26T03:35:55.779Z,8.15
2022-08-26T03:38:26.205Z,9.18
2022-08-26T03:40:54.939Z,10.13
2022-08-26T03:43:26.824Z,8.85
2022-08-26T03:45:56.144Z,9.20
2022-08-26T03:48:25.295Z,8.55
2022-08-26T03:50:53.369Z,8.20
2022-08-26T03:53:21.482Z,8.02
2022-08-26T03:55:51.909Z,7.07
2022-08-26T03:58:20.697Z,6.65
2022-08-26T04:00:49.388Z,6.15
2022-08-26T04:03:38.818Z,6.70
2022-08-26T04:06:07.548Z,6.97
2022-08-26T04:08:35.547Z,5.88
2022-08-26T04:11:03.531Z,5.68
2022-08-26T04:13:32.401Z,5.80
2022-08-26T04:16:00.635Z,6.13
2022-08-26T04:18:36.893Z,6.32
2022-08-26T04:21:07.909Z,6.10
2022-08-26T04:23:47.801Z,6.43
2022-08-26T04:26:16.327Z,6.78
2022-08-26T04:28:47.356Z,6.57
2022-08-26T04:31:17.495Z,6.50
2022-08-26T04:33:51.390Z,6.28
2022-08-26T04:36:19.895Z,6.88
2022-08-26T04:38:48.449Z,6.65
2022-08-26T04:41:17.095Z,6.90
2022-08-26T04:43:46.929Z,7.57
2022-08-26T04:46:22.010Z,7.22
2022-08-26T04:48:51.936Z,8.15
2022-08-26T04:51:20.546Z,7.10
2022-08-26T04:53:48.498Z,7.35
2022-08-26T04:56:18.340Z,7.55
2022-08-26T04:58:46.354Z,7.90
2022-08-26T05:01:14.351Z,7.43
2022-08-26T05:03:43.081Z,7.07
2022-08-26T05:06:13.255Z,7.20
2022-08-26T05:08:41.468Z,8.57
2022-08-26T05:11:10.065Z,7.82
2022-08-26T05:13:39.220Z,8.68
2022-08-26T05:16:11.631Z,8.23
2022-08-26T05:18:44.631Z,7.80
2022-08-26T05:21:20.293Z,7.63
2022-08-26T05:23:49.515Z,7.78
2022-08-26T05:26:17.495Z,7.20
2022-08-26T05:28:51.403Z,9.05
2022-08-26T05:31:26.264Z,7.38
2022-08-26T05:33:54.866Z,7.70
2022-08-26T05:36:26.855Z,9.13
2022-08-26T05:38:55.190Z,9.90
2022-08-26T05:41:27.769Z,10.38
2022-08-26T05:44:03.437Z,10.00
2022-08-26T05:46:31.776Z,8.38
2022-08-26T05:49:00.302Z,9.45
2022-08-26T05:51:30.485Z,8.38
2022-08-26T05:54:03.569Z,8.13
2022-08-26T05:56:31.832Z,8.75
2022-08-26T05:59:02.823Z,8.15
2022-08-26T06:01:35.823Z,7.78
2022-08-26T06:04:04.641Z,7.20
2022-08-26T06:06:36.382Z,7.25
2022-08-26T06:09:11.025Z,7.07
2022-08-26T06:11:40.239Z,6.75
2022-08-26T06:14:09.519Z,6.43
2022-08-26T06:16:40.724Z,7.22
2022-08-26T06:19:10.660Z,6.72
2022-08-26T06:21:42.741Z,6.75
2022-08-26T06:24:31.137Z,6.28
2022-08-26T06:27:01.613Z,6.50
2022-08-26T06:29:31.883Z,6.80
2022-08-26T06:32:00.682Z,6.47
2022-08-26T06:34:30.396Z,7.18
2022-08-26T06:37:02.619Z,6.90
2022-08-26T06:39:32.452Z,6.80
2022-08-26T06:42:00.736Z,7.00
2022-08-26T06:44:31.380Z,6.95
2022-08-26T06:47:00.435Z,6.03
2022-08-26T06:49:28.449Z,6.00
2022-08-26T06:51:58.935Z,6.18
2022-08-26T06:54:30.358Z,5.63
2022-08-26T06:56:58.987Z,5.82
2022-08-26T06:59:27.396Z,6.93
2022-08-26T07:01:55.423Z,6.40
2022-08-26T07:04:32.672Z,6.80
2022-08-26T07:07:00.906Z,6.13
2022-08-26T07:09:33.363Z,5.75
2022-08-26T07:12:01.954Z,6.57
2022-08-26T07:14:31.291Z,5.93
2022-08-26T07:17:01.439Z,5.95
2022-08-26T07:19:30.867Z,6.40
2022-08-26T07:22:02.185Z,6.03
2022-08-26T07:24:32.841Z,5.40
2022-08-26T07:27:02.807Z,6.18
2022-08-26T07:29:34.657Z,6.53
2022-08-26T07:32:03.831Z,5.85
2022-08-26T07:34:33.073Z,5.90
2022-08-26T07:37:01.417Z,5.65
2022-08-26T07:39:31.456Z,5.70
2022-08-26T07:42:07.382Z,5.80
2022-08-26T07:44:36.504Z,5.57
2022-08-26T07:47:10.201Z,5.50
2022-08-26T07:49:52.737Z,5.15
2022-08-26T07:52:26.001Z,5.18
2022-08-26T07:54:54.840Z,5.20
2022-08-26T07:57:24.509Z,5.75
2022-08-26T07:59:54.996Z,5.13
2022-08-26T08:02:24.812Z,5.28
2022-08-26T08:04:53.455Z,5.18
2022-08-26T08:07:38.795Z,5.25
2022-08-26T08:10:11.770Z,5.32
2022-08-26T08:12:43.132Z,5.25
2022-08-26T08:15:14.011Z,4.68
2022-08-26T08:17:42.916Z,4.50
2022-08-26T08:20:12.650Z,4.50
2022-08-26T08:22:41.224Z,4.50
2022-08-26T08:25:10.526Z,4.43
2022-08-26T08:27:42.016Z,4.38
2022-08-26T08:30:13.776Z,4.85
2022-08-26T08:32:43.589Z,4.75
2022-08-26T08:35:13.588Z,4.57
2022-08-26T08:37:43.872Z,4.47
2022-08-26T08:40:18.369Z,4.70
2022-08-26T08:45:36.286Z,4.40
2022-08-26T08:48:07.787Z,4.43
2022-08-26T08:50:40.737Z,4.20
2022-08-26T08:53:17.598Z,3.85
2022-08-26T08:56:10.253Z,3.45
2022-08-26T08:58:52.695Z,2.80
2022-08-26T09:01:39.517Z,2.80
2022-08-26T09:04:25.067Z,2.92
2022-08-26T09:09:35.733Z,2.72
2022-08-26T09:12:05.468Z,2.70
2022-08-26T09:14:34.785Z,2.80
2022-08-26T09:17:10.984Z,3.00
2022-08-26T09:19:44.208Z,2.67
2022-08-26T09:22:12.274Z,2.80
2022-08-26T09:24:48.485Z,3.08
2022-08-26T09:27:38.326Z,4.18
2022-08-26T09:30:11.392Z,3.88
2022-08-26T09:32:41.205Z,4.18
2022-08-26T09:35:12.239Z,4.65
2022-08-26T09:40:23.871Z,4.50
2022-08-26T09:43:15.894Z,5.30
2022-08-26T09:45:50.281Z,6.03
2022-08-26T09:48:28.377Z,5.90
2022-08-26T09:51:00.393Z,5.68
2022-08-26T09:53:31.482Z,5.97
2022-08-26T09:56:16.144Z,4.43
2022-08-26T09:58:47.256Z,4.72
2022-08-26T10:01:32.163Z,4.30
2022-08-26T10:04:10.621Z,3.80
2022-08-26T10:06:42.766Z,3.30
2022-08-26T10:09:16.230Z,2.72
2022-08-26T10:11:49.589Z,2.60
2022-08-26T10:14:24.435Z,2.90
2022-08-26T10:17:01.146Z,2.60
2022-08-26T10:19:56.176Z,2.70
2022-08-26T10:22:29.478Z,3.45
2022-08-26T10:25:00.296Z,3.10
2022-08-26T10:27:51.163Z,3.30
2022-08-26T10:30:23.317Z,3.35
2022-08-26T10:32:57.843Z,4.00
2022-08-26T10:35:27.186Z,3.95
2022-08-26T10:37:57.710Z,4.10
2022-08-26T10:40:28.622Z,3.92
2022-08-26T10:42:59.500Z,4.38
2022-08-26T10:45:30.280Z,3.90
2022-08-26T10:48:06.382Z,4.30
2022-08-26T10:50:39.163Z,4.30
2022-08-26T10:53:15.467Z,4.75
2022-08-26T10:55:51.826Z,4.20
2022-08-26T10:58:47.430Z,4.20
2022-08-26T11:01:40.799Z,3.70
2022-08-26T11:04:22.279Z,3.50
2022-08-26T11:06:52.236Z,3.53
2022-08-26T11:09:45.542Z,3.88
2022-08-26T11:12:49.360Z,2.90
2022-08-26T11:16:05.581Z,2.47
2022-08-26T11:18:46.839Z,2.90
2022-08-26T11:22:02.271Z,2.40
2022-08-26T11:25:11.495Z,2.13
2022-08-26T11:27:55.268Z,2.28
2022-08-26T11:30:58.139Z,2.30
2022-08-26T11:33:59.527Z,1.90
2022-08-26T11:36:57.327Z,2.30
2022-08-26T11:39:30.729Z,1.95
2022-08-26T11:42:04.432Z,1.92
2022-08-26T11:44:40.979Z,1.73
2022-08-26T11:47:26.787Z,1.52
2022-08-26T11:50:15.680Z,1.60
2022-08-26T11:52:53.049Z,1.83
2022-08-26T11:55:24.056Z,1.58
2022-08-26T11:57:55.801Z,1.95
2022-08-26T12:00:27.445Z,1.70
2022-08-26T12:03:03.233Z,1.42
2022-08-26T12:05:36.176Z,1.38
2022-08-26T12:08:10.234Z,1.50
2022-08-26T12:10:40.491Z,1.40
2022-08-26T12:13:09.486Z,1.30
2022-08-26T12:15:37.427Z,1.20
2022-08-26T12:18:29.639Z,1.30
2022-08-26T12:21:01.753Z,1.15
2022-08-26T12:23:41.263Z,1.23
2022-08-26T12:26:19.453Z,1.30
2022-08-26T12:28:49.728Z,1.33
2022-08-26T12:31:23.986Z,1.20
2022-08-26T12:33:54.148Z,1.08
2022-08-26T12:36:27.624Z,1.20
2022-08-26T12:38:58.395Z,1.23
2022-08-26T12:41:43.408Z,1.27
2022-08-26T12:44:33.797Z,1.30
2022-08-26T12:47:10.943Z,1.35
2022-08-26T12:49:41.059Z,1.17
2022-08-26T12:52:30.027Z,1.15
2022-08-26T12:55:00.278Z,1.50
2022-08-26T12:57:32.809Z,1.17
2022-08-26T13:00:34.190Z,1.13
2022-08-26T13:03:03.084Z,1.50
2022-08-26T13:05:35.413Z,1.65
2022-08-26T13:08:14.696Z,1.40
2022-08-26T13:10:44.658Z,1.48
2022-08-26T13:13:14.095Z,1.45
2022-08-26T13:15:42.136Z,1.30
2022-08-26T13:18:10.099Z,1.33
2022-08-26T13:20:44.269Z,1.20
2022-08-26T13:23:12.534Z,1.30
2022-08-26T13:25:40.930Z,1.40
2022-08-26T13:28:08.961Z,1.13
2022-08-26T13:30:38.366Z,1.40
2022-08-26T13:33:08.867Z,1.45
2022-08-26T13:35:40.212Z,1.20
2022-08-26T13:38:14.724Z,1.58
2022-08-26T13:41:01.757Z,1.30
2022-08-26T13:43:30.724Z,1.27
2022-08-26T13:46:01.621Z,1.27
2022-08-26T13:48:34.027Z,1.30
2022-08-26T13:51:02.841Z,1.55
2022-08-26T13:53:36.238Z,1.30
2022-08-26T13:56:06.967Z,1.50
2022-08-26T13:58:37.234Z,1.40
2022-08-26T14:01:06.791Z,1.30
2022-08-26T14:03:34.843Z,1.50
2022-08-26T14:06:02.936Z,1.25
2022-08-26T14:08:32.323Z,1.60
2022-08-26T14:11:00.323Z,1.60
2022-08-26T14:13:28.527Z,1.25
2022-08-26T14:15:58.816Z,1.48
2022-08-26T14:18:36.348Z,1.40
2022-08-26T14:21:13.925Z,1.30
2022-08-26T14:23:42.083Z,1.50
2022-08-26T14:26:14.292Z,1.30
2022-08-26T14:28:51.223Z,1.40
2022-08-26T14:31:19.328Z,1.48
2022-08-26T14:33:48.698Z,1.50
2022-08-26T14:36:32.714Z,1.52
2022-08-26T14:39:04.118Z,10.10
2022-08-26T14:41:34.623Z,6.95
2022-08-26T14:44:05.593Z,1.65
2022-08-26T14:46:39.025Z,1.50
2022-08-26T14:49:10.646Z,1.70
2022-08-26T14:51:39.221Z,1.50
2022-08-26T14:54:12.383Z,1.50
2022-08-26T14:56:44.723Z,1.60
2022-08-26T14:59:13.642Z,1.52
2022-08-26T15:01:42.306Z,1.30
2022-08-26T15:04:11.927Z,1.98
2022-08-26T15:06:42.275Z,1.60
2022-08-26T15:09:10.304Z,1.55
2022-08-26T15:11:38.327Z,2.00
2022-08-26T15:14:06.683Z,1.60
2022-08-26T15:16:35.283Z,1.40
2022-08-26T15:19:05.682Z,1.52
2022-08-26T15:21:36.918Z,1.30
2022-08-26T15:24:05.704Z,1.65
2022-08-26T15:26:35.198Z,1.30
2022-08-26T15:29:05.162Z,1.60
2022-08-26T15:31:35.102Z,1.77
2022-08-26T15:34:06.366Z,1.33
2022-08-26T15:36:39.819Z,1.60
2022-08-26T15:39:09.035Z,1.58
2022-08-26T15:41:40.492Z,1.58
2022-08-26T15:44:09.490Z,1.40
2022-08-26T15:46:38.664Z,1.80
2022-08-26T15:49:07.726Z,1.45
2022-08-26T15:51:45.619Z,1.63
2022-08-26T15:54:17.630Z,1.70
2022-08-26T15:56:51.768Z,2.17
2022-08-26T15:59:20.954Z,1.85
2022-08-26T16:01:49.130Z,1.48
2022-08-26T16:04:18.661Z,1.75
2022-08-26T16:06:50.241Z,1.75
2022-08-26T16:09:20.723Z,1.63
2022-08-26T16:11:48.715Z,1.67
2022-08-26T16:14:17.109Z,1.80
2022-08-26T16:16:45.165Z,1.52
2022-08-26T16:19:13.153Z,1.70
2022-08-26T16:21:42.004Z,1.75
2022-08-26T16:24:10.844Z,1.40
2022-08-26T16:26:41.880Z,1.65
2022-08-26T16:29:11.557Z,1.80
2022-08-26T16:31:39.772Z,1.70
2022-08-26T16:34:08.998Z,1.60
2022-08-26T16:36:40.956Z,1.98
2022-08-26T16:39:10.309Z,1.50
2022-08-26T16:41:42.894Z,1.95
2022-08-26T16:44:12.061Z,1.80
2022-08-26T16:46:41.240Z,1.48
2022-08-26T16:49:09.498Z,1.75
2022-08-26T16:51:38.246Z,1.80
2022-08-26T16:54:08.645Z,1.60
2022-08-26T16:56:37.890Z,1.50
2022-08-26T16:59:09.584Z,1.70
2022-08-26T17:01:37.792Z,2.22
2022-08-26T17:04:06.306Z,2.20
2022-08-26T17:06:34.335Z,1.60
2022-08-26T17:09:02.411Z,1.80
2022-08-26T17:11:30.436Z,1.90
2022-08-26T17:13:58.467Z,1.70
2022-08-26T17:16:27.969Z,1.80
2022-08-26T17:18:57.150Z,1.90
2022-08-26T17:21:26.760Z,2.03
2022-08-26T17:23:54.917Z,1.88
2022-08-26T17:26:23.049Z,1.80
2022-08-26T17:28:51.503Z,2.20
2022-08-26T17:31:19.806Z,2.65
2022-08-26T17:33:53.930Z,2.10
2022-08-26T17:36:28.147Z,2.10
2022-08-26T17:38:57.115Z,2.10
2022-08-26T17:41:25.399Z,1.77
2022-08-26T17:43:53.438Z,2.00
2022-08-26T17:46:21.460Z,1.90
2022-08-26T17:48:50.830Z,2.20
2022-08-26T17:51:20.315Z,2.60
2022-08-26T17:53:49.122Z,1.85
2022-08-26T17:56:19.426Z,2.00
2022-08-26T17:58:51.247Z,2.00
2022-08-26T18:01:20.819Z,1.70
2022-08-26T18:03:51.029Z,1.92
2022-08-26T18:06:20.724Z,2.38
2022-08-26T18:08:49.326Z,1.73
2022-08-26T18:11:19.053Z,1.85
2022-08-26T18:13:47.894Z,1.90
2022-08-26T18:16:17.634Z,1.67
2022-08-26T18:18:46.518Z,1.80
2022-08-26T18:21:18.070Z,1.60
2022-08-26T18:23:47.861Z,1.92
2022-08-26T18:26:19.761Z,1.80
2022-08-26T18:28:47.824Z,3.80
2022-08-26T18:31:16.414Z,3.70
2022-08-26T18:33:44.673Z,2.90
2022-08-26T18:36:21.951Z,1.70
2022-08-26T18:38:51.521Z,1.80
2022-08-26T18:41:21.411Z,1.65
2022-08-26T18:43:50.566Z,2.03
2022-08-26T18:46:20.443Z,1.83
2022-08-26T18:48:51.078Z,1.80
2022-08-26T18:51:23.742Z,1.63
2022-08-26T18:53:52.350Z,2.00
2022-08-26T18:56:20.690Z,1.90
2022-08-26T18:58:49.127Z,1.75
2022-08-26T19:01:17.523Z,1.75
2022-08-26T19:03:45.853Z,1.80
2022-08-26T19:06:18.936Z,2.00
2022-08-26T19:08:49.717Z,1.60
2022-08-26T19:11:31.624Z,1.90
2022-08-26T19:14:01.078Z,1.63
2022-08-26T19:16:30.057Z,2.42
2022-08-26T19:18:58.929Z,1.70
2022-08-26T19:21:26.970Z,1.70
2022-08-26T19:23:58.984Z,1.77
2022-08-26T19:26:28.069Z,1.55
2022-08-26T19:28:56.187Z,1.45
2022-08-26T19:31:24.620Z,1.60
2022-08-26T19:33:52.640Z,1.58
2022-08-26T19:36:23.550Z,1.73
2022-08-26T19:38:51.778Z,1.60
2022-08-26T19:41:36.972Z,1.50
2022-08-26T19:44:08.247Z,1.55
2022-08-26T19:49:10.243Z,1.95
2022-08-26T19:51:38.256Z,1.75
2022-08-26T19:54:06.564Z,1.90
2022-08-26T19:56:38.887Z,2.00
2022-08-26T19:59:06.853Z,1.58
2022-08-26T20:01:34.878Z,1.75
2022-08-26T20:04:02.897Z,1.98
2022-08-26T20:06:30.905Z,1.90
2022-08-26T20:08:58.858Z,1.90
2022-08-26T20:11:27.119Z,1.60
2022-08-26T20:13:57.179Z,1.55
2022-08-26T20:16:25.334Z,1.60
2022-08-26T20:19:11.023Z,1.60
2022-08-26T20:21:41.384Z,1.80
2022-08-26T20:24:13.074Z,1.90
2022-08-26T20:26:43.083Z,1.80
2022-08-26T20:29:15.080Z,1.90
2022-08-26T20:31:44.193Z,1.98
2022-08-26T20:34:13.326Z,2.25
2022-08-26T20:36:42.867Z,1.60
2022-08-26T20:39:11.877Z,2.00
2022-08-26T20:41:40.209Z,1.73
2022-08-26T20:44:09.477Z,1.70
2022-08-26T20:46:39.086Z,1.70
2022-08-26T20:49:08.331Z,1.27
2022-08-26T20:51:37.473Z,1.60
2022-08-26T20:54:06.563Z,1.52
2022-08-26T20:56:35.035Z,1.70
2022-08-26T20:59:03.753Z,1.70
2022-08-26T21:01:34.907Z,1.75
2022-08-26T21:04:07.370Z,1.65
2022-08-26T21:06:35.916Z,1.50
2022-08-26T21:09:05.783Z,1.75
2022-08-26T21:11:34.415Z,1.80
2022-08-26T21:14:06.929Z,1.77
2022-08-26T21:16:45.166Z,1.67
2022-08-26T21:19:17.703Z,1.67
2022-08-26T21:21:46.706Z,1.60
2022-08-26T21:24:15.085Z,1.50
2022-08-26T21:26:43.946Z,1.85
2022-08-26T21:29:13.588Z,1.90
2022-08-26T21:31:46.002Z,1.75
2022-08-26T21:34:17.611Z,1.60
2022-08-26T21:36:46.419Z,1.50
2022-08-26T21:39:15.175Z,1.75
2022-08-26T21:41:44.486Z,2.10
2022-08-26T21:44:14.354Z,1.70
2022-08-26T21:46:42.638Z,1.67
2022-08-26T21:49:13.784Z,1.60
2022-08-26T21:51:45.266Z,1.80
2022-08-26T21:54:14.519Z,1.48
2022-08-26T21:56:46.684Z,1.90
2022-08-26T21:59:16.686Z,1.67
2022-08-26T22:01:44.702Z,1.80
2022-08-26T22:04:12.810Z,1.80
2022-08-26T22:06:46.455Z,1.70
2022-08-26T22:09:15.818Z,1.77
2022-08-26T22:11:44.505Z,1.88
2022-08-26T22:14:13.108Z,1.70
2022-08-26T22:16:41.502Z,2.03
2022-08-26T22:19:18.187Z,2.08
2022-08-26T22:21:49.509Z,1.65
2022-08-26T22:24:18.243Z,2.08
2022-08-26T22:26:47.316Z,1.70
2022-08-26T22:29:15.707Z,2.72
2022-08-26T22:31:43.739Z,2.13
2022-08-26T22:34:15.255Z,1.80
2022-08-26T22:36:45.789Z,2.10
2022-08-26T22:39:17.360Z,2.03
2022-08-26T22:41:48.614Z,1.70
2022-08-26T22:44:17.960Z,2.00
2022-08-26T22:46:47.183Z,1.88
2022-08-26T22:49:17.147Z,2.25
2022-08-26T22:51:45.968Z,2.28
2022-08-26T22:54:15.870Z,1.98
2022-08-26T22:56:44.967Z,1.80
2022-08-26T22:59:14.252Z,1.67
2022-08-26T23:01:44.159Z,2.00
2022-08-26T23:04:12.605Z,1.60
2022-08-26T23:06:43.183Z,1.92
2022-08-26T23:09:18.389Z,2.25
2022-08-26T23:11:47.428Z,1.65
2022-08-26T23:14:16.442Z,2.20
2022-08-26T23:16:44.664Z,2.40
2022-08-26T23:19:14.840Z,2.10
2022-08-26T23:21:43.633Z,1.98
2022-08-26T23:24:12.531Z,2.00
2022-08-26T23:26:43.769Z,2.20
2022-08-26T23:29:13.467Z,1.77
2022-08-26T23:31:43.161Z,2.20
2022-08-26T23:34:29.823Z,1.92
2022-08-26T23:36:58.495Z,2.22
2022-08-26T23:39:26.591Z,1.90
2022-08-26T23:41:57.038Z,2.13
2022-08-26T23:44:26.550Z,2.17
2022-08-26T23:46:54.578Z,2.22
2022-08-26T23:49:22.737Z,2.05
2022-08-26T23:52:07.962Z,2.30
2022-08-26T23:54:36.188Z,2.17
2022-08-26T23:57:06.004Z,2.10
2022-08-26T23:59:34.505Z,2.40
